Thomson, IL (61285)

7:46 AM CDT on May 30, 2017 (GMT -0500)
Tri-Township | | Change Station
Active Advisory: Flood Warning

Elev 617 ft 42.05 °N, 90.11 °W | Updated 11 minutes ago

Clear
Clear
58 °F
Feels Like 58 °F
N
8
Wind Variable Wind from WNW

Today
High -- | Low -- °F
--% Chance of Precip.
Yesterday
High -- | Low -- °F
Precip. -- in
Pressure 29.99 in
Visibility 10.0 miles
Clouds Clear
Dew Point 48 °F
Humidity 67%
Rainfall 0.00 in
Snow Depth Not available.
5:28 AM 8:28 PM
Waxing Crescent, 29% visible
METAR KSFY 301235Z AUTO 29007KT 10SM CLR 15/09 A2999 RMK AO2 T01460086
Pressure 29.99 in
Visibility 10.0 miles
Clouds Clear
Dew Point 48 °F
Humidity 67%
Rainfall 0.00 in
Snow Depth Not available.
5:28 AM 8:28 PM
Waxing Crescent, 29% visible
METAR KSFY 301235Z AUTO 29007KT 10SM CLR 15/09 A2999 RMK AO2 T01460086

Get Your Daily Forecast Email!

Thanks for signing up!

Be on the lookout for a verification email in your inbox.

You'll start receiving severe weather alerts in your inbox..

×

10-Day Weather Forecast

Almanac

Astronomy

May. 30, 2017 Rise Set
Actual Time
Civil Twilight
Nautical Twilight
Astronomical Twilight
Moon
Length of Visible Light
Length of Day
Tomorrow will be .
, % of the Moon is Illuminated

Today's Extremes

State Highs State Lows

Community

WunderPhotos

Category 6

Welcome to Category 6. This is the collective home for Weather Underground's featured writeups by Dr. Jeff Masters (right), Bob Henson (left), Chris Burt, and other regular contributors.

Nearby

Air Quality

  Air Quality AQ Index Pollutant
Not available.

Snow Depth

Station Depth Elevation

Earthquake Activity

City Distance Mag. Time & Date
Minimum magnitude displayed is 2.5.

Coastal Water Temperatures

Place Temperature

Stations

Nearby Weather Stations

Station Location Temp. Windchill Dew Point Humidity Wind Precip. Elev Updated Type
                   

Watches & Warnings

Flood Warning
Issued: 4:49 AM CDT May. 30, 2017 – National Weather Service

... Flood Warning remains in effect until Saturday evening...

The Flood Warning continues for
the Mississippi River at Fulton ld13.
* Until Saturday evening.
* At 4:00 am Tuesday the stage was 16.6 feet... and rising.
* Flood stage is 16.0 feet.
* Minor flooding is occurring.
* Forecast... rise to 17.0 feet Wednesday morning. Fall below flood
stage Saturday evening.
* Impact... at 16.0 feet... water affects a few houses at Thomson.


Lat... Lon 4211 9012 4193 9008 4188 9012 4189 9020
      4208 9019